createdAt,value
2022-10-19T00:02:26.484Z,6.7
2022-10-19T00:12:26.774Z,6.6
2022-10-19T00:22:27.277Z,6.6
2022-10-19T00:32:28.350Z,6.6
2022-10-19T00:42:28.893Z,6.6
2022-10-19T00:52:29.380Z,6.5
2022-10-19T01:02:29.761Z,6.4
2022-10-19T01:12:30.534Z,6.2
2022-10-19T01:22:31.584Z,6.1
2022-10-19T01:32:31.810Z,6.1
2022-10-19T01:42:32.302Z,6
2022-10-19T01:52:32.804Z,6
2022-10-19T02:02:32.966Z,5.9
2022-10-19T02:33:32.636Z,5.7
2022-10-19T03:00:49.170Z,5.3
2022-10-19T03:10:49.912Z,5.3
2022-10-19T03:20:50.690Z,5.3
2022-10-19T03:30:51.692Z,5.3
2022-10-19T03:50:52.413Z,5.7
2022-10-19T04:00:52.677Z,5.7
2022-10-19T04:10:52.854Z,5.6
2022-10-19T04:20:53.847Z,5.5
2022-10-19T04:30:54.660Z,5.5
2022-10-19T04:40:54.958Z,5.4
2022-10-19T04:50:55.771Z,5.1
2022-10-19T05:00:56.012Z,4.9
2022-10-19T05:01:17.834Z,4.9
2022-10-19T05:11:01.652Z,4.8
2022-10-19T05:21:02.124Z,4.7
2022-10-19T05:31:02.768Z,4.6
2022-10-19T05:41:03.655Z,4.5
2022-10-19T05:51:04.475Z,4.6
2022-10-19T06:01:05.349Z,4.7
2022-10-19T06:11:06.104Z,4.7
2022-10-19T06:21:06.562Z,4.8
2022-10-19T06:31:09.107Z,5
2022-10-19T06:41:07.779Z,5
2022-10-19T06:51:08.204Z,5.1
2022-10-19T07:01:09.126Z,5.3
2022-10-19T07:11:10.152Z,5.4
2022-10-19T07:21:10.422Z,5.5
2022-10-19T07:31:10.614Z,5.8
2022-10-19T07:41:11.035Z,5.9
2022-10-19T07:51:11.159Z,6
2022-10-19T08:01:12.170Z,6.2
2022-10-19T08:11:12.645Z,6.4
2022-10-19T08:21:13.279Z,6.6
2022-10-19T08:31:13.563Z,6.8
2022-10-19T08:41:13.789Z,7.2
2022-10-19T08:51:14.348Z,7.6
2022-10-19T09:01:14.866Z,8.2
2022-10-19T09:11:14.987Z,8.9
2022-10-19T09:21:15.344Z,9.7
2022-10-19T09:31:15.535Z,10.7
2022-10-19T09:41:16.401Z,11.6
2022-10-19T09:51:16.719Z,12.1
2022-10-19T10:01:17.744Z,12.2
2022-10-19T10:11:18.557Z,12.6
2022-10-19T10:21:20.550Z,12.8
2022-10-19T10:31:18.777Z,12.9
2022-10-19T10:41:19.030Z,13.1
2022-10-19T10:51:19.758Z,13.2
2022-10-19T11:01:20.701Z,13.3
2022-10-19T11:11:21.722Z,13.4
2022-10-19T11:21:22.703Z,13.3
2022-10-19T11:31:22.989Z,13.4
2022-10-19T11:41:23.418Z,13.6
2022-10-19T11:51:24.180Z,13.7
2022-10-19T12:01:24.867Z,14
2022-10-19T12:11:25.543Z,14
2022-10-19T12:21:25.895Z,14.2
2022-10-19T12:31:26.547Z,14.2
2022-10-19T12:41:26.927Z,14.2
2022-10-19T12:51:27.172Z,14.3
2022-10-19T13:01:27.915Z,14.5
2022-10-19T13:11:28.876Z,14.8
2022-10-19T13:21:29.270Z,15.2
2022-10-19T13:31:30.147Z,15.2
2022-10-19T13:41:31.185Z,15.1
2022-10-19T13:51:31.876Z,15
2022-10-19T14:01:32.553Z,15.2
2022-10-19T14:21:33.149Z,15
2022-10-19T14:31:34.147Z,14.9
2022-10-19T14:51:35.224Z,14.3
2022-10-19T15:01:35.890Z,14.1
2022-10-19T15:11:36.938Z,13.8
2022-10-19T15:21:37.610Z,13.6
2022-10-19T15:41:38.243Z,13.3
2022-10-19T15:51:39.110Z,13.1
2022-10-19T16:01:39.409Z,12.9
2022-10-19T16:11:39.493Z,12.6
2022-10-19T16:21:39.914Z,12.4
2022-10-19T16:31:40.583Z,12.1
2022-10-19T16:41:41.445Z,12
2022-10-19T16:51:41.558Z,11.8
2022-10-19T17:11:42.939Z,11.5
2022-10-19T17:21:43.862Z,11.4
2022-10-19T17:31:44.135Z,11.3
2022-10-19T17:41:45.100Z,11.2
2022-10-19T17:51:45.581Z,11.1
2022-10-19T18:01:45.935Z,11.1
2022-10-19T18:11:46.963Z,10.9
2022-10-19T18:21:47.700Z,10.9
2022-10-19T18:41:48.512Z,10.7
2022-10-19T18:51:50.702Z,10.6
2022-10-19T19:01:50.270Z,10.5
2022-10-19T19:11:50.823Z,10.4
2022-10-19T19:21:51.116Z,10.3
2022-10-19T19:31:51.906Z,10.2
2022-10-19T19:41:52.482Z,10
2022-10-19T20:01:53.778Z,9.7
2022-10-19T20:11:54.537Z,9.6
2022-10-19T20:21:55.025Z,9.5
2022-10-19T20:31:55.938Z,9.4
2022-10-19T20:41:56.230Z,9.3
2022-10-19T20:51:56.525Z,9.1
2022-10-19T21:01:57.358Z,9
2022-10-19T21:21:58.951Z,8.8
2022-10-19T21:31:59.596Z,8.7
2022-10-19T21:42:00.040Z,8.6
2022-10-19T21:52:00.803Z,8.6
2022-10-19T22:02:01.443Z,8.4
2022-10-19T22:12:01.801Z,8.3
2022-10-19T22:22:02.409Z,8.2
2022-10-19T22:32:02.994Z,8.2
2022-10-19T22:42:03.606Z,8.2
2022-10-19T22:52:03.867Z,8.1
2022-10-19T23:02:04.817Z,8
2022-10-19T23:12:05.408Z,7.7
2022-10-19T23:22:06.224Z,7.7
2022-10-19T23:32:07.075Z,7.5
2022-10-19T23:52:08.142Z,7.3
